Time;durP1;ratioP1;P1;durP2;ratioP2;P2;SDS_P1;SDS_P2;PMS_P1;PMS_P2;Temp;Humidity;BMP_temperature;BMP_pressure;BME280_temperature;BME280_humidity;BME280_pressure;Samples;Min_cycle;Max_cycle;Signal;HPM_P1;HPM_P2
2023/02/15 00:00:44;;;;;;;;;;;;;;;14.04;70.91;102606.50;1271849;23;626;-68
2023/02/15 00:01:34;;;;;;;;;;;;;;;14.02;71.40;102606.56;1272154;23;673;-68
2023/02/15 00:02:25;;;;;;;;;;;;;;;14.03;71.46;102602.06;1272849;23;692;-68
2023/02/15 00:03:15;;;;;;;;;;;;;;;13.99;71.36;102606.72;1272056;23;629;-68
2023/02/15 00:04:05;;;;;;;;;;;;;;;14.00;71.16;102600.41;1272137;23;594;-68
2023/02/15 00:04:56;;;;;;;;;;;;;;;13.98;71.34;102596.06;1272024;23;622;-68
2023/02/15 00:05:46;;;;;;;;;;;;;;;13.98;71.32;102602.31;1272244;23;630;-68
2023/02/15 00:06:37;;;;;;;;;;;;;;;14.01;71.24;102604.84;1272855;23;660;-68
2023/02/15 00:07:27;;;;;;;;;;;;;;;14.04;71.09;102609.19;1272878;23;609;-68
2023/02/15 00:08:18;;;;;;;;;;;;;;;14.01;71.39;102607.50;1272217;23;598;-68
2023/02/15 00:09:08;;;;;;;;;;;;;;;13.99;71.00;102606.72;1271953;23;622;-68
2023/02/15 00:09:58;;;;;;;;;;;;;;;13.99;71.07;102603.19;1273070;23;637;-68
2023/02/15 00:10:49;;;;;;;;;;;;;;;13.98;70.75;102606.81;1271874;23;1936;-68
2023/02/15 00:11:39;;;;;;;;;;;;;;;13.97;71.00;102603.28;1272020;23;582;-68
2023/02/15 00:12:30;;;;;;;;;;;;;;;13.98;71.71;102601.44;1272818;23;723;-68
2023/02/15 00:13:20;;;;;;;;;;;;;;;14.01;71.38;102604.84;1271866;23;610;-68
2023/02/15 00:14:10;;;;;;;;;;;;;;;14.01;71.06;102602.16;1272286;23;654;-68
2023/02/15 00:15:01;;;;;;;;;;;;;;;14.03;71.08;102599.41;1271934;23;598;-67
2023/02/15 00:15:51;;;;;;;;;;;;;;;14.01;71.14;102602.16;1273057;23;632;-68
2023/02/15 00:16:42;;;;;;;;;;;;;;;14.01;71.52;102602.16;1271858;23;602;-68
2023/02/15 00:17:32;;;;;;;;;;;;;;;14.01;71.37;102606.66;1272900;23;640;-68
2023/02/15 00:18:23;;;;;;;;;;;;;;;13.98;70.70;102604.13;1270421;23;650;-68
2023/02/15 00:19:13;;;;;;;;;;;;;;;13.99;71.03;102601.34;1271995;23;606;-69
2023/02/15 00:20:04;;;;;;;;;;;;;;;13.99;70.95;102601.34;1272173;23;614;-68
2023/02/15 00:20:54;;;;;;;;;;;;;;;13.99;71.23;102600.50;1272025;23;630;-68
2023/02/15 00:21:44;;;;;;;;;;;;;;;13.99;70.92;102604.03;1272147;23;665;-68
2023/02/15 00:22:35;;;;;;;;;;;;;;;14.00;71.18;102607.59;1271983;23;622;-68
2023/02/15 00:23:25;;;;;;;;;;;;;;;13.99;70.91;102596.00;1272020;23;678;-68
2023/02/15 00:24:16;;;;;;;;;;;;;;;14.00;71.02;102591.50;1270901;23;681;-68
2023/02/15 00:25:06;;;;;;;;;;;;;;;14.00;70.76;102597.72;1271998;23;662;-68
2023/02/15 00:25:57;;;;;;;;;;;;;;;14.00;70.65;102586.16;1272283;23;677;-67
2023/02/15 00:26:47;;;;;;;;;;;;;;;14.02;70.71;102592.31;1272108;23;630;-68
2023/02/15 00:27:37;;;;;;;;;;;;;;;14.01;70.75;102588.75;1272916;23;605;-68
2023/02/15 00:28:28;;;;;;;;;;;;;;;14.00;70.72;102589.69;1271874;23;650;-68
2023/02/15 00:29:18;;;;;;;;;;;;;;;14.00;71.04;102592.38;1272860;23;683;-68
2023/02/15 00:30:09;;;;;;;;;;;;;;;14.00;71.06;102588.81;1270930;23;658;-68
2023/02/15 00:30:59;;;;;;;;;;;;;;;13.99;70.88;102585.28;1272682;23;1942;-68
2023/02/15 00:31:50;;;;;;;;;;;;;;;14.00;70.81;102580.78;1272240;23;669;-66
2023/02/15 00:32:40;;;;;;;;;;;;;;;13.99;71.06;102585.28;1272301;23;598;-68
2023/02/15 00:33:30;;;;;;;;;;;;;;;13.98;70.98;102582.69;1272146;23;669;-68
2023/02/15 00:34:21;;;;;;;;;;;;;;;13.98;71.17;102572.81;1271866;23;610;-66
2023/02/15 00:35:11;;;;;;;;;;;;;;;14.01;70.80;102577.16;1271982;23;796;-66
2023/02/15 00:36:02;;;;;;;;;;;;;;;14.01;70.69;102578.03;1271132;23;637;-66
2023/02/15 00:36:52;;;;;;;;;;;;;;;14.01;71.30;102583.38;1272887;23;696;-67
2023/02/15 00:37:43;;;;;;;;;;;;;;;14.00;71.10;102583.47;1272479;23;638;-69
2023/02/15 00:38:33;;;;;;;;;;;;;;;13.98;71.29;102583.53;1270824;23;634;-69
2023/02/15 00:39:24;;;;;;;;;;;;;;;13.92;71.33;102577.66;1271496;23;646;-68
2023/02/15 00:40:14;;;;;;;;;;;;;;;13.95;71.04;102578.38;1271876;23;617;-68
2023/02/15 00:41:05;;;;;;;;;;;;;;;13.94;70.90;102579.31;1272204;23;657;-68
2023/02/15 00:41:55;;;;;;;;;;;;;;;13.94;71.35;102579.31;1272780;23;669;-68
2023/02/15 00:42:45;;;;;;;;;;;;;;;13.94;71.01;102575.75;1272520;23;794;-68
2023/02/15 00:43:36;;;;;;;;;;;;;;;13.93;71.32;102580.25;1270550;23;611;-68
2023/02/15 00:44:26;;;;;;;;;;;;;;;13.93;71.37;102580.25;1272810;23;1201;-68
2023/02/15 00:45:17;;;;;;;;;;;;;;;13.89;71.12;102576.84;1272285;23;672;-68
2023/02/15 00:46:07;;;;;;;;;;;;;;;13.87;71.92;102576.06;1270630;23;634;-68
2023/02/15 00:46:58;;;;;;;;;;;;;;;13.88;71.21;102579.63;1271139;23;607;-67
2023/02/15 00:47:48;;;;;;;;;;;;;;;13.89;71.19;102573.31;1270990;23;700;-67
2023/02/15 00:48:38;;;;;;;;;;;;;;;13.88;71.24;102576.94;1271861;23;673;-66
2023/02/15 00:49:29;;;;;;;;;;;;;;;13.89;70.79;102576.00;1272753;23;672;-66
2023/02/15 00:50:19;;;;;;;;;;;;;;;13.89;71.40;102579.53;1272877;23;638;-67
2023/02/15 00:51:10;;;;;;;;;;;;;;;13.88;70.97;102577.81;1272037;23;2199;-67
2023/02/15 00:52:00;;;;;;;;;;;;;;;13.88;71.06;102567.09;1271860;23;661;-67
2023/02/15 00:52:50;;;;;;;;;;;;;;;13.90;70.49;102572.38;1272020;23;625;-67
2023/02/15 00:53:41;;;;;;;;;;;;;;;13.89;71.17;102581.34;1272761;23;808;-67
2023/02/15 00:54:31;;;;;;;;;;;;;;;13.89;71.21;102567.94;1271930;23;615;-67
2023/02/15 00:55:22;;;;;;;;;;;;;;;13.89;70.94;102571.50;1272971;23;637;-67
2023/02/15 00:56:12;;;;;;;;;;;;;;;13.88;70.81;102571.56;1271905;23;653;-67
2023/02/15 00:57:03;;;;;;;;;;;;;;;13.88;70.79;102576.94;1272560;23;689;-68
2023/02/15 00:57:53;;;;;;;;;;;;;;;13.89;71.21;102573.31;1272454;23;633;-67
2023/02/15 00:58:43;;;;;;;;;;;;;;;13.88;71.28;102577.81;1271208;23;704;-67
2023/02/15 00:59:34;;;;;;;;;;;;;;;13.89;71.13;102576.84;1272749;23;696;-67
2023/02/15 01:00:24;;;;;;;;;;;;;;;13.88;70.76;102571.56;1271878;23;670;-67
2023/02/15 01:01:15;;;;;;;;;;;;;;;13.85;71.03;102569.03;1272829;23;594;-68
2023/02/15 01:02:05;;;;;;;;;;;;;;;13.84;70.80;102568.19;1271095;23;807;-68
2023/02/15 01:02:55;;;;;;;;;;;;;;;13.86;70.87;102565.41;1271256;23;623;-67
2023/02/15 01:03:46;;;;;;;;;;;;;;;13.86;70.54;102568.97;1272725;23;606;-67
2023/02/15 01:04:36;;;;;;;;;;;;;;;13.80;70.98;102566.59;1271957;23;642;-67
2023/02/15 01:05:27;;;;;;;;;;;;;;;13.82;71.35;102563.84;1270779;23;634;-67
2023/02/15 01:06:17;;;;;;;;;;;;;;;13.82;71.62;102567.38;1272048;23;665;-67
2023/02/15 01:07:08;;;;;;;;;;;;;;;13.82;70.92;102572.75;1272176;23;610;-67
2023/02/15 01:07:58;;;;;;;;;;;;;;;13.84;70.82;102572.66;1271859;23;610;-67
2023/02/15 01:08:48;;;;;;;;;;;;;;;13.82;70.92;102564.72;1272021;23;610;-67
2023/02/15 01:09:39;;;;;;;;;;;;;;;13.84;71.48;102576.22;1271806;23;614;-67
2023/02/15 01:10:29;;;;;;;;;;;;;;;13.84;71.02;102568.19;1272864;23;661;-67
2023/02/15 01:11:21;;;;;;;;;;;;;;;13.85;71.32;102563.69;1271709;23;650;-67
2023/02/15 01:12:12;;;;;;;;;;;;;;;13.82;70.95;102567.38;1271418;23;677;-67
2023/02/15 01:13:02;;;;;;;;;;;;;;;13.80;71.04;102565.72;1271837;23;524;-67
2023/02/15 01:13:52;;;;;;;;;;;;;;;13.79;70.93;102558.66;1272016;23;669;-68
2023/02/15 01:14:43;;;;;;;;;;;;;;;13.79;71.54;102561.34;1270919;23;602;-68
2023/02/15 01:15:33;;;;;;;;;;;;;;;13.80;71.31;102557.69;1272944;23;656;-68
2023/02/15 01:16:24;;;;;;;;;;;;;;;13.82;71.35;102558.47;1272072;23;613;-68
2023/02/15 01:17:14;;;;;;;;;;;;;;;13.80;71.74;102563.03;1271932;23;649;-68
2023/02/15 01:18:05;;;;;;;;;;;;;;;13.79;71.44;102551.47;1271885;23;1266;-68
2023/02/15 01:18:55;;;;;;;;;;;;;;;13.79;70.92;102550.63;1271860;23;623;-68
2023/02/15 01:19:46;;;;;;;;;;;;;;;13.79;71.14;102556.81;1272208;23;614;-68
2023/02/15 01:20:38;;;;;;;;;;;;;;;13.78;71.21;102549.75;1272331;23;613;-68
2023/02/15 01:21:29;;;;;;;;;;;;;;;13.78;71.42;102548.88;1270965;23;662;-68
2023/02/15 01:22:19;;;;;;;;;;;;;;;13.77;71.34;102549.84;1270959;23;760;-68
2023/02/15 01:23:10;;;;;;;;;;;;;;;13.79;71.00;102550.63;1271949;23;657;-68
2023/02/15 01:24:00;;;;;;;;;;;;;;;13.79;70.72;102550.63;1270966;23;665;-68
2023/02/15 01:24:50;;;;;;;;;;;;;;;13.78;70.77;102548.88;1271936;23;665;-66
2023/02/15 01:25:41;;;;;;;;;;;;;;;13.78;71.41;102543.53;1271692;23;622;-68
2023/02/15 01:26:31;;;;;;;;;;;;;;;13.78;71.32;102540.84;1271883;23;630;-66
2023/02/15 01:27:22;;;;;;;;;;;;;;;13.78;70.97;102548.88;1272003;23;831;-68
2023/02/15 01:28:12;;;;;;;;;;;;;;;13.77;71.15;102537.31;1271856;23;641;-68
2023/02/15 01:29:03;;;;;;;;;;;;;;;13.75;71.11;102539.19;1272087;23;622;-67
2023/02/15 01:29:53;;;;;;;;;;;;;;;13.73;71.48;102538.41;1272283;23;598;-68
2023/02/15 01:30:43;;;;;;;;;;;;;;;13.72;71.23;102536.66;1270286;23;670;-67
2023/02/15 01:31:34;;;;;;;;;;;;;;;13.71;71.26;102542.09;1272620;23;736;-67
2023/02/15 01:32:24;;;;;;;;;;;;;;;13.72;70.75;102530.44;1271977;23;615;-67
2023/02/15 01:33:17;;;;;;;;;;;;;;;13.73;71.58;102529.50;1272809;23;724;-67
2023/02/15 01:34:07;;;;;;;;;;;;;;;13.72;71.05;102538.47;1271152;23;646;-66
2023/02/15 01:34:58;;;;;;;;;;;;;;;13.71;70.94;102531.38;1272872;23;625;-66
2023/02/15 01:35:48;;;;;;;;;;;;;;;13.72;71.15;102533.13;1271765;23;622;-66
2023/02/15 01:36:39;;;;;;;;;;;;;;;13.69;71.46;102531.44;1272126;23;606;-66
2023/02/15 01:37:29;;;;;;;;;;;;;;;13.70;70.90;102537.69;1271640;23;649;-66
2023/02/15 01:38:19;;;;;;;;;;;;;;;13.70;71.37;102532.31;1271973;23;602;-66
2023/02/15 01:39:10;;;;;;;;;;;;;;;13.69;71.51;102526.09;1272632;23;648;-66
2023/02/15 01:40:00;;;;;;;;;;;;;;;13.71;71.40;102534.06;1272369;23;621;-66
2023/02/15 01:40:51;;;;;;;;;;;;;;;13.71;70.73;102531.38;1272558;23;671;-66
2023/02/15 01:41:41;;;;;;;;;;;;;;;13.70;71.39;102532.31;1272363;23;630;-66
2023/02/15 01:42:32;;;;;;;;;;;;;;;13.69;71.16;102525.22;1273219;23;586;-66
2023/02/15 01:43:22;;;;;;;;;;;;;;;13.69;71.19;102530.59;1272834;23;644;-66
2023/02/15 01:44:13;;;;;;;;;;;;;;;13.68;70.88;102531.53;1271964;23;657;-66
2023/02/15 01:45:03;;;;;;;;;;;;;;;13.69;70.93;102527.91;1271254;23;650;-66
2023/02/15 01:45:53;;;;;;;;;;;;;;;13.66;71.35;102526.25;1272102;23;652;-67
2023/02/15 01:46:44;;;;;;;;;;;;;;;13.67;70.88;102524.44;1270712;23;734;-67
2023/02/15 01:47:34;;;;;;;;;;;;;;;13.66;71.27;102525.38;1271994;23;650;-67
2023/02/15 01:48:26;;;;;;;;;;;;;;;13.66;70.92;102522.69;1272027;23;610;-67
2023/02/15 01:49:16;;;;;;;;;;;;;;;13.66;70.92;102523.56;1271868;23;614;-67
2023/02/15 01:50:06;;;;;;;;;;;;;;;13.67;71.23;102521.75;1272090;23;641;-67
2023/02/15 01:50:57;;;;;;;;;;;;;;;13.67;70.99;102521.75;1272552;23;1944;-67
2023/02/15 01:51:47;;;;;;;;;;;;;;;13.65;70.87;102515.59;1272238;23;665;-67
2023/02/15 01:52:38;;;;;;;;;;;;;;;13.67;71.27;102513.72;1272503;23;691;-67
2023/02/15 01:53:28;;;;;;;;;;;;;;;13.69;71.17;102527.91;1272669;23;649;-67
2023/02/15 01:54:19;;;;;;;;;;;;;;;13.65;71.05;102513.78;1272456;23;684;-67
2023/02/15 01:55:09;;;;;;;;;;;;;;;13.65;71.50;102524.50;1270442;23;660;-67
2023/02/15 01:56:00;;;;;;;;;;;;;;;13.65;70.98;102523.63;1270760;23;661;-67
2023/02/15 01:56:50;;;;;;;;;;;;;;;13.64;70.72;102529.94;1272659;23;649;-66
2023/02/15 01:57:41;;;;;;;;;;;;;;;13.64;71.04;102524.59;1272811;23;665;-66
2023/02/15 01:58:31;;;;;;;;;;;;;;;13.63;71.45;102517.50;1271608;23;606;-66
2023/02/15 01:59:21;;;;;;;;;;;;;;;13.64;71.34;102519.22;1271946;23;650;-66
2023/02/15 02:00:12;;;;;;;;;;;;;;;13.66;70.84;102517.34;1272523;23;633;-66
2023/02/15 02:01:03;;;;;;;;;;;;;;;13.65;71.39;102515.59;1272601;23;585;-67
2023/02/15 02:01:54;;;;;;;;;;;;;;;13.66;71.39;102511.97;1272117;23;669;-67
2023/02/15 02:02:44;;;;;;;;;;;;;;;13.64;71.15;102513.88;1270848;23;634;-67
2023/02/15 02:03:36;;;;;;;;;;;;;;;13.65;71.21;102510.25;1272827;23;681;-67
2023/02/15 02:04:26;;;;;;;;;;;;;;;13.67;70.88;102513.72;1272667;23;653;-67
2023/02/15 02:05:17;;;;;;;;;;;;;;;13.66;70.88;102510.16;1271707;23;696;-67
2023/02/15 02:06:07;;;;;;;;;;;;;;;13.66;70.88;102517.34;1270670;23;614;-67
2023/02/15 02:06:57;;;;;;;;;;;;;;;13.63;70.97;102507.66;1271878;23;653;-67
2023/02/15 02:07:48;;;;;;;;;;;;;;;13.64;70.85;102511.19;1271612;23;602;-66
2023/02/15 02:08:38;;;;;;;;;;;;;;;13.64;71.28;102509.38;1271813;23;653;-66
2023/02/15 02:09:29;;;;;;;;;;;;;;;13.63;71.23;102507.66;1272785;23;684;-66
2023/02/15 02:10:19;;;;;;;;;;;;;;;13.60;71.26;102504.28;1271669;23;723;-67
2023/02/15 02:11:09;;;;;;;;;;;;;;;13.59;70.90;102510.59;1271697;23;1889;-66
2023/02/15 02:12:00;;;;;;;;;;;;;;;13.59;70.76;102503.41;1272551;23;679;-67
2023/02/15 02:12:50;;;;;;;;;;;;;;;13.60;71.14;102512.31;1271850;23;649;-67
2023/02/15 02:13:41;;;;;;;;;;;;;;;13.62;71.04;102502.38;1271974;23;663;-67
2023/02/15 02:14:31;;;;;;;;;;;;;;;13.60;70.95;102505.16;1272605;23;563;-67
2023/02/15 02:15:22;;;;;;;;;;;;;;;13.60;70.76;102504.28;1271797;23;614;-67
2023/02/15 02:16:12;;;;;;;;;;;;;;;13.58;70.68;102500.81;1270706;23;732;-67
2023/02/15 02:17:02;;;;;;;;;;;;;;;13.59;71.35;102505.22;1271879;23;650;-67
2023/02/15 02:17:53;;;;;;;;;;;;;;;13.60;70.88;102501.59;1272196;23;1420;-66
2023/02/15 02:18:43;;;;;;;;;;;;;;;13.57;70.58;102502.63;1272529;23;653;-67
2023/02/15 02:19:34;;;;;;;;;;;;;;;13.55;71.32;102494.66;1272397;23;633;-68
2023/02/15 02:20:24;;;;;;;;;;;;;;;13.57;71.25;102507.13;1270686;23;622;-68
2023/02/15 02:21:15;;;;;;;;;;;;;;;13.58;70.56;102492.78;1272638;23;660;-67
2023/02/15 02:22:05;;;;;;;;;;;;;;;13.57;71.25;102491.03;1271757;23;673;-67
2023/02/15 02:22:56;;;;;;;;;;;;;;;13.57;71.60;102493.72;1272000;23;701;-67
2023/02/15 02:23:46;;;;;;;;;;;;;;;13.58;71.33;102490.09;1270888;23;619;-67
2023/02/15 02:24:37;;;;;;;;;;;;;;;13.58;70.65;102482.06;1272234;23;633;-67
2023/02/15 02:25:27;;;;;;;;;;;;;;;13.55;70.89;102491.13;1270388;23;642;-67
2023/02/15 02:26:17;;;;;;;;;;;;;;;13.54;71.31;102487.56;1270988;23;606;-67
2023/02/15 02:27:08;;;;;;;;;;;;;;;13.53;71.27;102491.19;1272016;23;618;-67
2023/02/15 02:27:58;;;;;;;;;;;;;;;13.51;71.17;102487.72;1272534;23;613;-67
2023/02/15 02:28:49;;;;;;;;;;;;;;;13.50;70.55;102477.94;1271699;23;669;-67
2023/02/15 02:29:39;;;;;;;;;;;;;;;13.50;70.94;102479.75;1270463;23;665;-66
2023/02/15 02:30:29;;;;;;;;;;;;;;;13.48;70.89;102471.81;1272656;23;602;-66
2023/02/15 02:31:20;;;;;;;;;;;;;;;13.45;71.27;102471.94;1271828;23;1897;-67
2023/02/15 02:32:10;;;;;;;;;;;;;;;13.44;70.83;102472.91;1271665;23;661;-67
2023/02/15 02:33:01;;;;;;;;;;;;;;;13.44;71.77;102475.56;1272732;23;629;-67
2023/02/15 02:33:51;;;;;;;;;;;;;;;13.44;71.13;102485.41;1271724;23;633;-66
2023/02/15 02:34:41;;;;;;;;;;;;;;;13.43;71.10;102478.34;1271772;23;685;-66
2023/02/15 02:35:32;;;;;;;;;;;;;;;13.42;71.46;102473.94;1272565;23;704;-66
2023/02/15 02:36:22;;;;;;;;;;;;;;;13.41;71.25;102474.88;1272633;23;605;-66
2023/02/15 02:37:13;;;;;;;;;;;;;;;13.40;71.36;102483.88;1271135;23;627;-67
2023/02/15 02:38:03;;;;;;;;;;;;;;;13.42;71.41;102481.97;1271648;23;669;-67
2023/02/15 02:38:54;;;;;;;;;;;;;;;13.42;71.75;102487.34;1271790;23;618;-67
2023/02/15 02:39:44;;;;;;;;;;;;;;;13.41;70.96;102475.75;1270691;23;623;-67
2023/02/15 02:40:34;;;;;;;;;;;;;;;13.37;71.22;102479.53;1271748;23;645;-67
2023/02/15 02:41:25;;;;;;;;;;;;;;;13.37;71.38;102473.31;1271979;23;649;-67
2023/02/15 02:42:15;;;;;;;;;;;;;;;13.37;71.32;102476.84;1271662;23;650;-68
2023/02/15 02:43:06;;;;;;;;;;;;;;;13.41;71.64;102481.13;1272139;23;676;-68
2023/02/15 02:43:56;;;;;;;;;;;;;;;13.40;71.19;102476.69;1271635;23;619;-68
2023/02/15 02:44:47;;;;;;;;;;;;;;;13.38;71.74;102481.25;1271875;23;658;-68
2023/02/15 02:45:37;;;;;;;;;;;;;;;13.41;71.65;102482.94;1271505;23;773;-68
2023/02/15 02:46:28;;;;;;;;;;;;;;;13.40;71.07;102476.69;1271803;23;684;-68
2023/02/15 02:47:18;;;;;;;;;;;;;;;13.41;71.18;102474.88;1270568;23;653;-68
2023/02/15 02:48:08;;;;;;;;;;;;;;;13.41;71.37;102474.88;1271806;23;630;-68
2023/02/15 02:48:59;;;;;;;;;;;;;;;13.43;71.67;102483.72;1271919;23;646;-68
2023/02/15 02:49:49;;;;;;;;;;;;;;;13.43;71.30;102473.88;1272667;23;609;-68
2023/02/15 02:50:40;;;;;;;;;;;;;;;13.42;71.48;102471.28;1271811;23;662;-67
2023/02/15 02:51:30;;;;;;;;;;;;;;;13.43;71.14;102473.88;1271732;23;606;-67
2023/02/15 02:52:21;;;;;;;;;;;;;;;13.44;71.69;102475.56;1271113;23;677;-68
2023/02/15 02:53:11;;;;;;;;;;;;;;;13.43;70.80;102467.66;1272623;23;669;-68
2023/02/15 02:54:02;;;;;;;;;;;;;;;13.43;71.43;102467.66;1272561;23;716;-68
2023/02/15 02:54:52;;;;;;;;;;;;;;;13.43;70.83;102468.50;1272493;23;791;-68
2023/02/15 02:55:42;;;;;;;;;;;;;;;13.43;70.75;102471.19;1272571;23;697;-67
2023/02/15 02:56:33;;;;;;;;;;;;;;;13.44;70.79;102459.50;1271942;23;610;-67
2023/02/15 02:57:23;;;;;;;;;;;;;;;13.42;70.69;102466.78;1271640;23;638;-67
2023/02/15 02:58:14;;;;;;;;;;;;;;;13.43;71.09;102462.28;1271803;23;674;-67
2023/02/15 02:59:04;;;;;;;;;;;;;;;13.42;71.46;102456.06;1270751;23;587;-67
2023/02/15 02:59:54;;;;;;;;;;;;;;;13.42;71.57;102463.25;1271790;23;618;-67
2023/02/15 03:00:45;;;;;;;;;;;;;;;13.41;71.45;102459.69;1272094;23;685;-67
2023/02/15 03:01:35;;;;;;;;;;;;;;;13.41;70.55;102467.72;1271705;23;603;-67
2023/02/15 03:02:26;;;;;;;;;;;;;;;13.41;71.50;102462.38;1271863;23;606;-67
2023/02/15 03:03:16;;;;;;;;;;;;;;;13.40;71.10;102457.09;1271536;23;657;-67
2023/02/15 03:04:07;;;;;;;;;;;;;;;13.38;71.59;102459.84;1271865;23;933;-67
2023/02/15 03:05:03;;;;;;;;;;;;;;;13.36;71.06;102460.84;1271589;23;630;-66
2023/02/15 03:05:53;;;;;;;;;;;;;;;13.37;71.43;102452.75;1271717;23;661;-67
2023/02/15 03:06:44;;;;;;;;;;;;;;;13.34;70.92;102447.53;1271959;23;619;-67
2023/02/15 03:07:35;;;;;;;;;;;;;;;13.33;71.57;102458.34;1271749;23;613;-67
2023/02/15 03:08:27;;;;;;;;;;;;;;;13.33;71.66;102447.63;1271208;23;673;-67
2023/02/15 03:09:18;;;;;;;;;;;;;;;13.34;71.54;102441.31;1272690;23;594;-67
2023/02/15 03:10:08;;;;;;;;;;;;;;;13.35;70.75;102446.59;1272626;23;605;-67
2023/02/15 03:10:59;;;;;;;;;;;;;;;13.35;70.76;102438.56;1271714;23;1941;-67
2023/02/15 03:11:49;;;;;;;;;;;;;;;13.35;71.33;102443.94;1270575;23;689;-67
2023/02/15 03:12:40;;;;;;;;;;;;;;;13.34;71.18;102431.47;1271751;23;658;-68
2023/02/15 03:13:30;;;;;;;;;;;;;;;13.35;71.09;102437.69;1272312;23;622;-68
2023/02/15 03:14:20;;;;;;;;;;;;;;;13.36;70.80;102434.09;1270436;23;653;-67
2023/02/15 03:15:11;;;;;;;;;;;;;;;13.35;71.24;102432.34;1271145;23;661;-68
2023/02/15 03:17:11;;;;;;;;;;;;;;;13.32;71.35;102436.03;1270969;23;673;-67
2023/02/15 03:18:02;;;;;;;;;;;;;;;13.32;71.13;102432.50;1272323;23;1384;-67
2023/02/15 03:18:53;;;;;;;;;;;;;;;13.32;71.31;102430.69;1270928;23;646;-67
2023/02/15 03:19:43;;;;;;;;;;;;;;;13.32;70.74;102428.00;1272386;23;625;-67
2023/02/15 03:20:34;;;;;;;;;;;;;;;13.34;70.83;102431.47;1272211;23;594;-67
2023/02/15 03:21:24;;;;;;;;;;;;;;;13.35;70.98;102435.91;1271210;23;630;-67
2023/02/15 03:22:14;;;;;;;;;;;;;;;13.33;70.91;102432.44;1272615;23;646;-67
2023/02/15 03:23:05;;;;;;;;;;;;;;;13.32;70.71;102438.72;1271872;23;586;-67
2023/02/15 03:23:55;;;;;;;;;;;;;;;13.31;71.33;102431.63;1270849;23;646;-67
2023/02/15 03:24:46;;;;;;;;;;;;;;;13.32;70.90;102432.50;1271773;23;665;-67
2023/02/15 03:25:36;;;;;;;;;;;;;;;13.31;70.73;102434.31;1270637;23;599;-67
2023/02/15 03:26:26;;;;;;;;;;;;;;;13.31;70.73;102434.31;1271811;23;607;-66
2023/02/15 03:27:17;;;;;;;;;;;;;;;13.32;71.36;102428.00;1272337;23;618;-67
2023/02/15 03:28:07;;;;;;;;;;;;;;;13.33;71.28;102434.22;1270603;23;606;-66
2023/02/15 03:28:58;;;;;;;;;;;;;;;13.32;71.48;102429.81;1271067;23;626;-67
2023/02/15 03:29:48;;;;;;;;;;;;;;;13.32;70.72;102430.69;1271652;23;779;-67
2023/02/15 03:30:39;;;;;;;;;;;;;;;13.30;70.62;102429.91;1271678;23;696;-67
2023/02/15 03:31:29;;;;;;;;;;;;;;;13.30;71.12;102429.91;1272506;23;621;-67
2023/02/15 03:32:20;;;;;;;;;;;;;;;13.27;71.07;102427.38;1271750;23;661;-66
2023/02/15 03:33:10;;;;;;;;;;;;;;;13.28;70.91;102433.59;1271982;23;665;-66
2023/02/15 03:34:01;;;;;;;;;;;;;;;13.28;71.02;102426.44;1271617;23;637;-66
2023/02/15 03:34:51;;;;;;;;;;;;;;;13.27;71.04;102424.69;1272518;23;718;-66
2023/02/15 03:35:41;;;;;;;;;;;;;;;13.26;70.74;102427.44;1272552;23;590;-66
2023/02/15 03:36:32;;;;;;;;;;;;;;;13.25;70.66;102423.94;1271851;23;622;-66
2023/02/15 03:37:22;;;;;;;;;;;;;;;13.25;71.58;102431.97;1271628;23;634;-66
2023/02/15 03:38:13;;;;;;;;;;;;;;;13.23;71.54;102423.13;1271858;23;629;-66
2023/02/15 03:39:03;;;;;;;;;;;;;;;13.23;71.21;102417.78;1272497;23;657;-66
2023/02/15 03:39:54;;;;;;;;;;;;;;;13.22;71.02;102426.75;1271635;23;641;-66
2023/02/15 03:41:53;;;;;;;;;;;;;;;13.21;71.23;102419.69;1270762;23;661;-66
2023/02/15 03:42:44;;;;;;;;;;;;;;;13.22;71.62;102421.41;1271663;23;644;-65
2023/02/15 03:43:34;;;;;;;;;;;;;;;13.23;71.40;102424.94;1272451;23;669;-67
2023/02/15 03:44:24;;;;;;;;;;;;;;;13.22;70.66;102424.09;1271662;23;649;-66
2023/02/15 03:45:15;;;;;;;;;;;;;;;13.22;71.05;102418.72;1271860;23;621;-66
2023/02/15 03:46:05;;;;;;;;;;;;;;;13.19;70.81;102421.56;1271564;23;635;-67
2023/02/15 03:46:56;;;;;;;;;;;;;;;13.20;71.08;102417.94;1271847;23;669;-67
2023/02/15 03:47:46;;;;;;;;;;;;;;;13.19;71.45;102422.44;1272444;23;629;-68
2023/02/15 03:48:37;;;;;;;;;;;;;;;13.19;71.04;102416.19;1272711;23;616;-67
2023/02/15 03:49:27;;;;;;;;;;;;;;;13.19;71.41;102416.19;1270567;23;674;-67
2023/02/15 03:51:33;;;;;;;;;;;;;;;13.17;71.12;102418.97;1271183;23;638;-67
2023/02/15 03:52:24;;;;;;;;;;;;;;;13.18;71.49;102419.81;1271528;23;653;-67
2023/02/15 03:53:14;;;;;;;;;;;;;;;13.19;71.25;102417.06;1271821;23;618;-65
2023/02/15 03:54:04;;;;;;;;;;;;;;;13.19;70.74;102414.41;1270785;23;622;-67
2023/02/15 03:54:55;;;;;;;;;;;;;;;13.20;70.94;102412.59;1271939;23;638;-66
2023/02/15 03:55:46;;;;;;;;;;;;;;;13.22;71.22;102416.06;1271203;23;601;-66
2023/02/15 03:56:36;;;;;;;;;;;;;;;13.20;71.01;102413.44;1270534;23;607;-66
2023/02/15 04:02:03;;;;;;;;;;;;;;;13.18;71.27;102411.78;1270675;23;638;-67
2023/02/15 04:02:54;;;;;;;;;;;;;;;13.15;71.51;102412.81;1271727;23;645;-66
2023/02/15 04:03:44;;;;;;;;;;;;;;;13.18;71.37;102406.44;1272351;23;668;-66
2023/02/15 04:04:35;;;;;;;;;;;;;;;13.15;71.22;102403.91;1271742;23;595;-66
2023/02/15 04:05:25;;;;;;;;;;;;;;;13.13;71.24;102403.97;1271968;23;606;-67
2023/02/15 04:06:15;;;;;;;;;;;;;;;13.13;71.58;102405.75;1272465;23;645;-67
2023/02/15 04:07:06;;;;;;;;;;;;;;;13.13;71.55;102400.41;1271908;23;626;-67
2023/02/15 04:07:56;;;;;;;;;;;;;;;13.14;71.32;102400.34;1272428;23;633;-67
2023/02/15 04:11:05;;;;;;;;;;;;;;;13.13;70.73;102401.28;1270672;23;1885;-67
2023/02/15 04:11:56;;;;;;;;;;;;;;;13.13;71.07;102400.41;1271736;23;653;-67
2023/02/15 04:12:46;;;;;;;;;;;;;;;13.13;70.96;102395.94;1272110;23;661;-67
2023/02/15 04:13:36;;;;;;;;;;;;;;;13.11;71.58;102408.50;1270453;23;665;-67
2023/02/15 04:16:45;;;;;;;;;;;;;;;13.10;71.74;102400.56;1270786;23;626;-66
2023/02/15 04:17:36;;;;;;;;;;;;;;;13.09;71.19;102402.38;1272422;23;890;-67
2023/02/15 04:25:22;;;;;;;;;;;;;;;13.04;71.64;102399.09;1271004;23;629;-67
2023/02/15 04:26:12;;;;;;;;;;;;;;;13.01;71.50;102396.56;1272586;23;625;-67
2023/02/15 04:27:03;;;;;;;;;;;;;;;13.03;71.06;102401.84;1272699;23;616;-67
2023/02/15 04:27:53;;;;;;;;;;;;;;;13.04;70.80;102390.19;1272409;23;614;-67
2023/02/15 04:28:44;;;;;;;;;;;;;;;13.04;71.59;102391.06;1271963;23;622;-67
2023/02/15 04:29:34;;;;;;;;;;;;;;;13.04;70.75;102391.06;1272591;23;661;-67
2023/02/15 04:30:24;;;;;;;;;;;;;;;13.03;71.28;102389.31;1270767;23;630;-67
2023/02/15 04:31:15;;;;;;;;;;;;;;;13.04;70.96;102395.53;1271241;23;1972;-67
2023/02/15 04:32:06;;;;;;;;;;;;;;;13.04;71.11;102388.38;1272812;23;654;-67
2023/02/15 04:32:56;;;;;;;;;;;;;;;13.04;70.65;102385.69;1271103;23;618;-67
2023/02/15 04:33:47;;;;;;;;;;;;;;;13.05;71.50;102386.56;1273028;23;638;-68
2023/02/15 04:34:38;;;;;;;;;;;;;;;13.06;71.51;102388.31;1272886;23;605;-68
2023/02/15 04:35:28;;;;;;;;;;;;;;;13.05;71.34;102389.25;1272143;23;614;-68
2023/02/15 04:36:18;;;;;;;;;;;;;;;13.04;70.91;102382.16;1271971;23;602;-66
2023/02/15 04:37:10;;;;;;;;;;;;;;;13.04;71.36;102379.47;1272191;23;645;-66
2023/02/15 04:38:00;;;;;;;;;;;;;;;13.03;70.73;102383.97;1272787;23;645;-66
2023/02/15 04:38:50;;;;;;;;;;;;;;;13.05;71.65;102381.22;1272065;23;653;-67
2023/02/15 04:39:41;;;;;;;;;;;;;;;13.04;71.48;102380.34;1272111;23;634;-67
2023/02/15 04:40:31;;;;;;;;;;;;;;;13.03;70.66;102377.75;1272718;23;649;-68
2023/02/15 04:41:22;;;;;;;;;;;;;;;13.04;71.65;102374.13;1272043;23;685;-68
2023/02/15 04:42:12;;;;;;;;;;;;;;;13.03;71.48;102375.94;1270797;23;646;-67
2023/02/15 04:43:03;;;;;;;;;;;;;;;13.04;70.84;102374.13;1273045;23;606;-67
2023/02/15 04:43:53;;;;;;;;;;;;;;;13.02;71.20;102376.88;1272194;23;650;-68
2023/02/15 04:44:43;;;;;;;;;;;;;;;13.02;71.72;102374.22;1271902;23;606;-68
2023/02/15 04:45:34;;;;;;;;;;;;;;;13.02;71.52;102373.34;1272046;23;611;-67
2023/02/15 04:46:24;;;;;;;;;;;;;;;13.02;71.29;102370.66;1272706;23;672;-67